sensor_id;sensor_type;location;lat;lon;timestamp;temperature;humidity
46926;DHT22;32667;48.248;-1.700;2023-07-31T00:02:25;18.90;68.70
46926;DHT22;32667;48.248;-1.700;2023-07-31T00:04:51;18.90;68.60
46926;DHT22;32667;48.248;-1.700;2023-07-31T00:07:16;18.90;68.60
46926;DHT22;32667;48.248;-1.700;2023-07-31T00:09:44;18.90;68.50
46926;DHT22;32667;48.248;-1.700;2023-07-31T00:12:10;18.90;68.60
46926;DHT22;32667;48.248;-1.700;2023-07-31T00:14:36;18.90;68.60
46926;DHT22;32667;48.248;-1.700;2023-07-31T00:17:05;18.90;68.60
46926;DHT22;32667;48.248;-1.700;2023-07-31T00:19:31;18.90;68.60
46926;DHT22;32667;48.248;-1.700;2023-07-31T00:21:56;18.90;68.60
46926;DHT22;32667;48.248;-1.700;2023-07-31T00:24:22;18.90;68.60
46926;DHT22;32667;48.248;-1.700;2023-07-31T00:26:50;18.90;68.60
46926;DHT22;32667;48.248;-1.700;2023-07-31T00:29:16;18.90;68.60
46926;DHT22;32667;48.248;-1.700;2023-07-31T00:31:41;18.90;68.70
46926;DHT22;32667;48.248;-1.700;2023-07-31T00:34:14;18.90;68.70
46926;DHT22;32667;48.248;-1.700;2023-07-31T00:36:40;18.90;68.70
46926;DHT22;32667;48.248;-1.700;2023-07-31T00:39:06;18.90;69.30
46926;DHT22;32667;48.248;-1.700;2023-07-31T00:41:34;18.90;68.70
46926;DHT22;32667;48.248;-1.700;2023-07-31T00:44:02;18.90;68.60
46926;DHT22;32667;48.248;-1.700;2023-07-31T00:46:28;18.90;68.70
46926;DHT22;32667;48.248;-1.700;2023-07-31T00:48:54;18.90;68.70
46926;DHT22;32667;48.248;-1.700;2023-07-31T00:51:20;18.80;68.60
46926;DHT22;32667;48.248;-1.700;2023-07-31T00:53:47;18.80;68.70
46926;DHT22;32667;48.248;-1.700;2023-07-31T00:56:12;18.80;68.70
46926;DHT22;32667;48.248;-1.700;2023-07-31T00:58:39;18.90;68.70
46926;DHT22;32667;48.248;-1.700;2023-07-31T01:01:08;18.90;68.70
46926;DHT22;32667;48.248;-1.700;2023-07-31T01:03:34;18.80;69.20
46926;DHT22;32667;48.248;-1.700;2023-07-31T01:08:51;18.80;68.60
46926;DHT22;32667;48.248;-1.700;2023-07-31T01:11:27;18.80;68.70
46926;DHT22;32667;48.248;-1.700;2023-07-31T01:14:00;18.80;68.70
46926;DHT22;32667;48.248;-1.700;2023-07-31T01:16:26;18.80;68.70
46926;DHT22;32667;48.248;-1.700;2023-07-31T01:18:59;18.80;68.70
46926;DHT22;32667;48.248;-1.700;2023-07-31T01:21:41;18.80;68.70
46926;DHT22;32667;48.248;-1.700;2023-07-31T01:26:53;18.80;68.70
46926;DHT22;32667;48.248;-1.700;2023-07-31T01:29:25;18.80;68.60
46926;DHT22;32667;48.248;-1.700;2023-07-31T01:31:53;18.80;68.60
46926;DHT22;32667;48.248;-1.700;2023-07-31T01:34:19;18.80;68.60
46926;DHT22;32667;48.248;-1.700;2023-07-31T01:36:46;18.80;68.60
46926;DHT22;32667;48.248;-1.700;2023-07-31T01:39:12;18.80;68.60
46926;DHT22;32667;48.248;-1.700;2023-07-31T01:41:38;18.80;68.60
46926;DHT22;32667;48.248;-1.700;2023-07-31T01:44:04;18.80;68.70
46926;DHT22;32667;48.248;-1.700;2023-07-31T01:46:29;18.80;68.70
46926;DHT22;32667;48.248;-1.700;2023-07-31T01:48:55;18.80;68.70
46926;DHT22;32667;48.248;-1.700;2023-07-31T01:51:21;18.80;68.70
46926;DHT22;32667;48.248;-1.700;2023-07-31T01:53:49;18.80;68.70
46926;DHT22;32667;48.248;-1.700;2023-07-31T01:56:15;18.80;68.70
46926;DHT22;32667;48.248;-1.700;2023-07-31T01:58:41;18.70;68.60
46926;DHT22;32667;48.248;-1.700;2023-07-31T02:01:06;18.70;68.60
46926;DHT22;32667;48.248;-1.700;2023-07-31T02:03:35;18.70;68.60
46926;DHT22;32667;48.248;-1.700;2023-07-31T02:06:00;18.70;68.70
46926;DHT22;32667;48.248;-1.700;2023-07-31T02:08:26;18.80;68.70
46926;DHT22;32667;48.248;-1.700;2023-07-31T02:10:53;18.70;68.60
46926;DHT22;32667;48.248;-1.700;2023-07-31T02:13:19;18.80;68.60
46926;DHT22;32667;48.248;-1.700;2023-07-31T02:15:47;18.80;68.60
46926;DHT22;32667;48.248;-1.700;2023-07-31T02:18:15;18.80;68.60
46926;DHT22;32667;48.248;-1.700;2023-07-31T02:20:43;18.80;68.60
46926;DHT22;32667;48.248;-1.700;2023-07-31T02:23:17;18.80;68.70
46926;DHT22;32667;48.248;-1.700;2023-07-31T02:25:45;18.70;68.60
46926;DHT22;32667;48.248;-1.700;2023-07-31T02:28:11;18.70;68.60
46926;DHT22;32667;48.248;-1.700;2023-07-31T02:30:37;18.70;68.70
46926;DHT22;32667;48.248;-1.700;2023-07-31T02:33:04;18.70;68.70
46926;DHT22;32667;48.248;-1.700;2023-07-31T02:35:30;18.80;68.70
46926;DHT22;32667;48.248;-1.700;2023-07-31T02:37:56;18.70;68.60
46926;DHT22;32667;48.248;-1.700;2023-07-31T02:40:22;18.80;68.70
46926;DHT22;32667;48.248;-1.700;2023-07-31T02:42:48;18.80;68.60
46926;DHT22;32667;48.248;-1.700;2023-07-31T02:45:16;18.80;68.70
46926;DHT22;32667;48.248;-1.700;2023-07-31T02:47:42;18.80;68.70
46926;DHT22;32667;48.248;-1.700;2023-07-31T02:50:08;18.80;68.60
46926;DHT22;32667;48.248;-1.700;2023-07-31T02:52:37;18.80;68.60
46926;DHT22;32667;48.248;-1.700;2023-07-31T02:55:02;18.80;68.60
46926;DHT22;32667;48.248;-1.700;2023-07-31T02:57:28;18.80;68.60
46926;DHT22;32667;48.248;-1.700;2023-07-31T02:59:56;18.80;68.60
46926;DHT22;32667;48.248;-1.700;2023-07-31T03:02:32;18.80;68.60
46926;DHT22;32667;48.248;-1.700;2023-07-31T03:04:57;18.80;68.60
46926;DHT22;32667;48.248;-1.700;2023-07-31T03:07:23;18.80;68.60
46926;DHT22;32667;48.248;-1.700;2023-07-31T03:09:49;18.80;68.60
46926;DHT22;32667;48.248;-1.700;2023-07-31T03:12:15;18.80;68.60
46926;DHT22;32667;48.248;-1.700;2023-07-31T03:14:45;18.80;68.50
46926;DHT22;32667;48.248;-1.700;2023-07-31T03:17:12;18.90;68.50
46926;DHT22;32667;48.248;-1.700;2023-07-31T03:19:38;18.90;68.40
46926;DHT22;32667;48.248;-1.700;2023-07-31T03:22:04;18.90;68.40
46926;DHT22;32667;48.248;-1.700;2023-07-31T03:24:35;18.90;68.40
46926;DHT22;32667;48.248;-1.700;2023-07-31T03:27:00;18.90;68.40
46926;DHT22;32667;48.248;-1.700;2023-07-31T03:29:28;18.90;68.40
46926;DHT22;32667;48.248;-1.700;2023-07-31T03:31:59;18.90;68.40
46926;DHT22;32667;48.248;-1.700;2023-07-31T03:34:25;18.90;68.40
46926;DHT22;32667;48.248;-1.700;2023-07-31T03:36:53;18.90;68.40
46926;DHT22;32667;48.248;-1.700;2023-07-31T03:39:19;18.90;68.50
46926;DHT22;32667;48.248;-1.700;2023-07-31T03:41:48;18.80;68.50
46926;DHT22;32667;48.248;-1.700;2023-07-31T03:44:14;18.80;68.60
46926;DHT22;32667;48.248;-1.700;2023-07-31T03:46:42;18.80;68.70
46926;DHT22;32667;48.248;-1.700;2023-07-31T03:49:08;18.70;68.70
46926;DHT22;32667;48.248;-1.700;2023-07-31T03:51:33;18.70;68.80
46926;DHT22;32667;48.248;-1.700;2023-07-31T03:54:02;18.70;68.80
46926;DHT22;32667;48.248;-1.700;2023-07-31T03:56:30;18.70;68.80
46926;DHT22;32667;48.248;-1.700;2023-07-31T03:58:58;18.70;69.40
46926;DHT22;32667;48.248;-1.700;2023-07-31T04:01:26;18.70;68.80
46926;DHT22;32667;48.248;-1.700;2023-07-31T04:03:52;18.70;68.70
46926;DHT22;32667;48.248;-1.700;2023-07-31T04:06:20;18.70;68.60
46926;DHT22;32667;48.248;-1.700;2023-07-31T04:08:46;18.70;68.60
46926;DHT22;32667;48.248;-1.700;2023-07-31T04:11:12;18.80;68.70
46926;DHT22;32667;48.248;-1.700;2023-07-31T04:13:38;18.80;68.60
46926;DHT22;32667;48.248;-1.700;2023-07-31T04:16:04;18.80;68.60
46926;DHT22;32667;48.248;-1.700;2023-07-31T04:18:30;18.80;68.60
46926;DHT22;32667;48.248;-1.700;2023-07-31T04:20:57;18.80;68.60
46926;DHT22;32667;48.248;-1.700;2023-07-31T04:23:29;18.80;68.60
46926;DHT22;32667;48.248;-1.700;2023-07-31T04:26:13;18.80;68.50
46926;DHT22;32667;48.248;-1.700;2023-07-31T04:28:38;18.80;68.50
46926;DHT22;32667;48.248;-1.700;2023-07-31T04:31:06;18.80;68.50
46926;DHT22;32667;48.248;-1.700;2023-07-31T04:33:32;18.90;68.50
46926;DHT22;32667;48.248;-1.700;2023-07-31T04:36:00;18.90;68.50
46926;DHT22;32667;48.248;-1.700;2023-07-31T04:38:26;18.90;68.40
46926;DHT22;32667;48.248;-1.700;2023-07-31T04:40:54;18.90;69.10
46926;DHT22;32667;48.248;-1.700;2023-07-31T04:43:19;18.90;68.50
46926;DHT22;32667;48.248;-1.700;2023-07-31T04:45:46;18.80;68.50
46926;DHT22;32667;48.248;-1.700;2023-07-31T04:48:15;18.90;68.60
46926;DHT22;32667;48.248;-1.700;2023-07-31T04:50:43;18.80;68.50
46926;DHT22;32667;48.248;-1.700;2023-07-31T04:53:09;18.90;68.60
46926;DHT22;32667;48.248;-1.700;2023-07-31T04:55:37;18.90;68.50
46926;DHT22;32667;48.248;-1.700;2023-07-31T04:58:03;18.90;68.50
46926;DHT22;32667;48.248;-1.700;2023-07-31T05:00:31;18.90;68.50
46926;DHT22;32667;48.248;-1.700;2023-07-31T05:02:59;18.90;68.50
46926;DHT22;32667;48.248;-1.700;2023-07-31T05:05:27;19.00;68.40
46926;DHT22;32667;48.248;-1.700;2023-07-31T05:07:53;19.00;68.40
46926;DHT22;32667;48.248;-1.700;2023-07-31T05:10:21;19.00;68.30
46926;DHT22;32667;48.248;-1.700;2023-07-31T05:12:49;19.10;68.30
46926;DHT22;32667;48.248;-1.700;2023-07-31T05:15:15;19.10;68.20
46926;DHT22;32667;48.248;-1.700;2023-07-31T05:17:40;19.10;68.10
46926;DHT22;32667;48.248;-1.700;2023-07-31T05:20:07;19.20;68.10
46926;DHT22;32667;48.248;-1.700;2023-07-31T05:22:36;19.20;68.10
46926;DHT22;32667;48.248;-1.700;2023-07-31T05:25:01;19.20;68.20
46926;DHT22;32667;48.248;-1.700;2023-07-31T05:27:31;19.20;68.20
46926;DHT22;32667;48.248;-1.700;2023-07-31T05:29:59;19.20;68.20
46926;DHT22;32667;48.248;-1.700;2023-07-31T05:32:25;19.20;68.20
46926;DHT22;32667;48.248;-1.700;2023-07-31T05:34:51;19.20;68.20
46926;DHT22;32667;48.248;-1.700;2023-07-31T05:37:18;19.20;68.10
46926;DHT22;32667;48.248;-1.700;2023-07-31T05:39:43;19.20;68.10
46926;DHT22;32667;48.248;-1.700;2023-07-31T05:42:09;19.20;68.20
46926;DHT22;32667;48.248;-1.700;2023-07-31T05:44:35;19.30;68.20
46926;DHT22;32667;48.248;-1.700;2023-07-31T05:47:03;19.30;68.20
46926;DHT22;32667;48.248;-1.700;2023-07-31T05:49:29;19.30;68.10
46926;DHT22;32667;48.248;-1.700;2023-07-31T05:51:54;19.30;68.10
46926;DHT22;32667;48.248;-1.700;2023-07-31T05:54:23;19.30;68.10
46926;DHT22;32667;48.248;-1.700;2023-07-31T05:56:51;19.30;68.00
46926;DHT22;32667;48.248;-1.700;2023-07-31T05:59:18;19.40;68.00
46926;DHT22;32667;48.248;-1.700;2023-07-31T06:01:44;19.40;67.90
46926;DHT22;32667;48.248;-1.700;2023-07-31T06:04:13;19.50;67.90
46926;DHT22;32667;48.248;-1.700;2023-07-31T06:06:38;19.50;67.90
46926;DHT22;32667;48.248;-1.700;2023-07-31T06:09:04;19.50;67.80
46926;DHT22;32667;48.248;-1.700;2023-07-31T06:11:30;19.60;67.80
46926;DHT22;32667;48.248;-1.700;2023-07-31T06:13:58;19.60;67.80
46926;DHT22;32667;48.248;-1.700;2023-07-31T06:16:25;19.60;67.80
46926;DHT22;32667;48.248;-1.700;2023-07-31T06:18:54;19.60;67.70
46926;DHT22;32667;48.248;-1.700;2023-07-31T06:21:22;19.60;67.80
46926;DHT22;32667;48.248;-1.700;2023-07-31T06:23:50;19.60;67.80
46926;DHT22;32667;48.248;-1.700;2023-07-31T06:26:16;19.60;67.80
46926;DHT22;32667;48.248;-1.700;2023-07-31T06:28:42;19.60;67.80
46926;DHT22;32667;48.248;-1.700;2023-07-31T06:31:10;19.60;67.90
46926;DHT22;32667;48.248;-1.700;2023-07-31T06:33:36;19.70;67.90
46926;DHT22;32667;48.248;-1.700;2023-07-31T06:36:09;19.70;67.70
46926;DHT22;32667;48.248;-1.700;2023-07-31T06:38:37;19.70;67.60
46926;DHT22;32667;48.248;-1.700;2023-07-31T06:41:03;19.80;67.60
46926;DHT22;32667;48.248;-1.700;2023-07-31T06:43:31;19.80;67.60
46926;DHT22;32667;48.248;-1.700;2023-07-31T06:45:56;19.80;67.60
46926;DHT22;32667;48.248;-1.700;2023-07-31T06:48:22;19.80;67.60
46926;DHT22;32667;48.248;-1.700;2023-07-31T06:50:48;19.80;67.70
46926;DHT22;32667;48.248;-1.700;2023-07-31T06:53:16;19.80;67.60
46926;DHT22;32667;48.248;-1.700;2023-07-31T06:55:42;19.70;67.70
46926;DHT22;32667;48.248;-1.700;2023-07-31T06:58:10;19.80;67.80
46926;DHT22;32667;48.248;-1.700;2023-07-31T07:00:38;19.80;67.80
46926;DHT22;32667;48.248;-1.700;2023-07-31T07:03:03;19.70;67.80
46926;DHT22;32667;48.248;-1.700;2023-07-31T07:05:32;19.70;67.90
46926;DHT22;32667;48.248;-1.700;2023-07-31T07:08:00;19.70;67.90
46926;DHT22;32667;48.248;-1.700;2023-07-31T07:10:28;19.80;68.00
46926;DHT22;32667;48.248;-1.700;2023-07-31T07:12:54;19.80;67.90
46926;DHT22;32667;48.248;-1.700;2023-07-31T07:15:22;19.80;67.90
46926;DHT22;32667;48.248;-1.700;2023-07-31T07:17:47;19.80;67.90
46926;DHT22;32667;48.248;-1.700;2023-07-31T07:20:13;19.80;67.90
46926;DHT22;32667;48.248;-1.700;2023-07-31T07:22:39;19.80;67.90
46926;DHT22;32667;48.248;-1.700;2023-07-31T07:25:05;19.80;67.90
46926;DHT22;32667;48.248;-1.700;2023-07-31T07:27:32;19.80;67.90
46926;DHT22;32667;48.248;-1.700;2023-07-31T07:29:58;19.80;67.90
46926;DHT22;32667;48.248;-1.700;2023-07-31T07:34:58;19.80;67.90
46926;DHT22;32667;48.248;-1.700;2023-07-31T07:37:31;19.80;67.90
46926;DHT22;32667;48.248;-1.700;2023-07-31T07:39:56;19.80;67.90
46926;DHT22;32667;48.248;-1.700;2023-07-31T07:42:25;19.80;67.90
46926;DHT22;32667;48.248;-1.700;2023-07-31T07:44:51;19.80;67.90
46926;DHT22;32667;48.248;-1.700;2023-07-31T07:47:19;19.90;67.90
46926;DHT22;32667;48.248;-1.700;2023-07-31T07:49:45;19.90;68.50
46926;DHT22;32667;48.248;-1.700;2023-07-31T07:52:11;19.90;67.80
46926;DHT22;32667;48.248;-1.700;2023-07-31T07:54:36;19.90;67.80
46926;DHT22;32667;48.248;-1.700;2023-07-31T07:57:02;19.90;67.70
46926;DHT22;32667;48.248;-1.700;2023-07-31T07:59:28;19.90;67.70
46926;DHT22;32667;48.248;-1.700;2023-07-31T08:01:54;20.00;67.80
46926;DHT22;32667;48.248;-1.700;2023-07-31T08:04:20;20.00;67.80
46926;DHT22;32667;48.248;-1.700;2023-07-31T08:06:45;19.90;67.70
46926;DHT22;32667;48.248;-1.700;2023-07-31T08:09:13;19.90;67.70
46926;DHT22;32667;48.248;-1.700;2023-07-31T08:11:46;19.90;67.80
46926;DHT22;32667;48.248;-1.700;2023-07-31T08:14:12;19.90;67.80
46926;DHT22;32667;48.248;-1.700;2023-07-31T08:16:41;19.90;67.70
46926;DHT22;32667;48.248;-1.700;2023-07-31T08:19:08;19.90;67.80
46926;DHT22;32667;48.248;-1.700;2023-07-31T08:21:34;20.00;67.80
46926;DHT22;32667;48.248;-1.700;2023-07-31T08:24:02;19.90;67.80
46926;DHT22;32667;48.248;-1.700;2023-07-31T08:26:28;19.90;67.80
46926;DHT22;32667;48.248;-1.700;2023-07-31T08:28:54;19.90;67.90
46926;DHT22;32667;48.248;-1.700;2023-07-31T08:31:22;19.90;67.90
46926;DHT22;32667;48.248;-1.700;2023-07-31T08:33:48;19.90;68.00
46926;DHT22;32667;48.248;-1.700;2023-07-31T08:36:14;19.90;68.00
46926;DHT22;32667;48.248;-1.700;2023-07-31T08:38:42;19.90;68.00
46926;DHT22;32667;48.248;-1.700;2023-07-31T08:41:10;19.90;68.00
46926;DHT22;32667;48.248;-1.700;2023-07-31T08:43:37;19.90;68.00
46926;DHT22;32667;48.248;-1.700;2023-07-31T08:46:03;20.00;68.00
46926;DHT22;32667;48.248;-1.700;2023-07-31T08:48:31;20.00;67.90
46926;DHT22;32667;48.248;-1.700;2023-07-31T08:50:57;20.10;67.90
46926;DHT22;32667;48.248;-1.700;2023-07-31T08:53:23;20.10;67.80
46926;DHT22;32667;48.248;-1.700;2023-07-31T08:55:55;20.20;67.60
46926;DHT22;32667;48.248;-1.700;2023-07-31T08:58:23;20.30;67.40
46926;DHT22;32667;48.248;-1.700;2023-07-31T09:00:52;20.40;67.40
46926;DHT22;32667;48.248;-1.700;2023-07-31T09:03:23;20.50;67.20
46926;DHT22;32667;48.248;-1.700;2023-07-31T09:05:51;20.50;67.10
46926;DHT22;32667;48.248;-1.700;2023-07-31T09:08:21;20.60;67.10
46926;DHT22;32667;48.248;-1.700;2023-07-31T09:10:47;20.60;67.20
46926;DHT22;32667;48.248;-1.700;2023-07-31T09:13:21;20.60;67.20
46926;DHT22;32667;48.248;-1.700;2023-07-31T09:15:46;20.60;67.10
46926;DHT22;32667;48.248;-1.700;2023-07-31T09:18:12;20.60;67.10
46926;DHT22;32667;48.248;-1.700;2023-07-31T09:20:42;20.60;67.10
46926;DHT22;32667;48.248;-1.700;2023-07-31T09:23:10;20.70;67.10
46926;DHT22;32667;48.248;-1.700;2023-07-31T09:25:41;20.70;67.10
46926;DHT22;32667;48.248;-1.700;2023-07-31T09:28:11;20.70;67.00
46926;DHT22;32667;48.248;-1.700;2023-07-31T09:30:49;20.80;67.00
46926;DHT22;32667;48.248;-1.700;2023-07-31T09:33:15;20.80;66.90
46926;DHT22;32667;48.248;-1.700;2023-07-31T09:35:44;20.80;66.80
46926;DHT22;32667;48.248;-1.700;2023-07-31T09:38:12;20.80;66.90
46926;DHT22;32667;48.248;-1.700;2023-07-31T09:40:44;20.90;66.90
46926;DHT22;32667;48.248;-1.700;2023-07-31T09:43:17;21.00;66.70
46926;DHT22;32667;48.248;-1.700;2023-07-31T09:45:44;21.10;66.60
46926;DHT22;32667;48.248;-1.700;2023-07-31T09:48:17;21.30;66.50
46926;DHT22;32667;48.248;-1.700;2023-07-31T09:50:48;21.30;66.40
46926;DHT22;32667;48.248;-1.700;2023-07-31T09:53:17;21.40;66.40
46926;DHT22;32667;48.248;-1.700;2023-07-31T09:55:43;21.40;66.30
46926;DHT22;32667;48.248;-1.700;2023-07-31T09:58:18;21.40;66.30
46926;DHT22;32667;48.248;-1.700;2023-07-31T10:00:44;21.50;66.30
46926;DHT22;32667;48.248;-1.700;2023-07-31T10:03:14;21.50;66.40
46926;DHT22;32667;48.248;-1.700;2023-07-31T10:05:45;21.50;66.30
46926;DHT22;32667;48.248;-1.700;2023-07-31T10:08:15;21.50;66.40
46926;DHT22;32667;48.248;-1.700;2023-07-31T10:10:43;21.50;66.60
46926;DHT22;32667;48.248;-1.700;2023-07-31T10:13:09;21.40;66.60
46926;DHT22;32667;48.248;-1.700;2023-07-31T10:15:36;21.30;66.80
46926;DHT22;32667;48.248;-1.700;2023-07-31T10:18:07;21.20;66.90
46926;DHT22;32667;48.248;-1.700;2023-07-31T10:20:33;21.20;67.00
46926;DHT22;32667;48.248;-1.700;2023-07-31T10:23:02;21.20;67.10
46926;DHT22;32667;48.248;-1.700;2023-07-31T10:25:29;21.20;67.20
46926;DHT22;32667;48.248;-1.700;2023-07-31T10:27:57;21.20;67.20
46926;DHT22;32667;48.248;-1.700;2023-07-31T10:30:27;21.20;67.20
46926;DHT22;32667;48.248;-1.700;2023-07-31T10:32:55;21.20;67.10
46926;DHT22;32667;48.248;-1.700;2023-07-31T10:35:21;21.20;67.20
46926;DHT22;32667;48.248;-1.700;2023-07-31T10:37:50;21.20;67.20
46926;DHT22;32667;48.248;-1.700;2023-07-31T10:40:24;21.20;67.10
46926;DHT22;32667;48.248;-1.700;2023-07-31T10:42:55;21.10;67.20
46926;DHT22;32667;48.248;-1.700;2023-07-31T10:48:06;21.10;67.30
46926;DHT22;32667;48.248;-1.700;2023-07-31T10:50:37;21.10;67.40
46926;DHT22;32667;48.248;-1.700;2023-07-31T10:53:05;21.10;67.40
46926;DHT22;32667;48.248;-1.700;2023-07-31T10:55:33;21.10;67.50
46926;DHT22;32667;48.248;-1.700;2023-07-31T10:58:06;21.10;67.60
46926;DHT22;32667;48.248;-1.700;2023-07-31T11:00:32;21.10;67.50
46926;DHT22;32667;48.248;-1.700;2023-07-31T11:03:15;21.20;67.40
46926;DHT22;32667;48.248;-1.700;2023-07-31T11:08:27;21.50;66.80
46926;DHT22;32667;48.248;-1.700;2023-07-31T11:13:33;21.90;66.30
46926;DHT22;32667;48.248;-1.700;2023-07-31T11:16:00;21.90;66.10
46926;DHT22;32667;48.248;-1.700;2023-07-31T11:18:26;22.00;66.10
46926;DHT22;32667;48.248;-1.700;2023-07-31T11:20:55;21.90;66.20
46926;DHT22;32667;48.248;-1.700;2023-07-31T11:23:23;21.90;66.40
46926;DHT22;32667;48.248;-1.700;2023-07-31T11:25:50;21.80;66.50
46926;DHT22;32667;48.248;-1.700;2023-07-31T11:28:17;21.80;66.70
46926;DHT22;32667;48.248;-1.700;2023-07-31T11:30:45;21.80;66.80
46926;DHT22;32667;48.248;-1.700;2023-07-31T11:33:12;21.70;66.80
46926;DHT22;32667;48.248;-1.700;2023-07-31T11:35:44;21.80;66.80
46926;DHT22;32667;48.248;-1.700;2023-07-31T11:38:27;21.80;66.70
46926;DHT22;32667;48.248;-1.700;2023-07-31T11:40:54;21.90;66.60
46926;DHT22;32667;48.248;-1.700;2023-07-31T11:43:25;21.90;66.50
46926;DHT22;32667;48.248;-1.700;2023-07-31T11:46:02;21.90;66.50
46926;DHT22;32667;48.248;-1.700;2023-07-31T11:48:33;21.90;66.60
46926;DHT22;32667;48.248;-1.700;2023-07-31T11:51:03;21.80;66.80
46926;DHT22;32667;48.248;-1.700;2023-07-31T11:53:33;21.70;67.00
46926;DHT22;32667;48.248;-1.700;2023-07-31T11:56:11;21.70;67.10
46926;DHT22;32667;48.248;-1.700;2023-07-31T11:58:41;21.60;67.20
46926;DHT22;32667;48.248;-1.700;2023-07-31T12:01:08;21.60;67.20
46926;DHT22;32667;48.248;-1.700;2023-07-31T12:03:35;21.60;67.20
46926;DHT22;32667;48.248;-1.700;2023-07-31T12:06:02;21.70;67.10
46926;DHT22;32667;48.248;-1.700;2023-07-31T12:08:28;21.80;67.00
46926;DHT22;32667;48.248;-1.700;2023-07-31T12:10:54;21.80;66.90
46926;DHT22;32667;48.248;-1.700;2023-07-31T12:13:27;21.90;66.80
46926;DHT22;32667;48.248;-1.700;2023-07-31T12:15:58;21.90;66.80
46926;DHT22;32667;48.248;-1.700;2023-07-31T12:18:26;21.90;66.80
46926;DHT22;32667;48.248;-1.700;2023-07-31T12:21:00;21.90;66.80
46926;DHT22;32667;48.248;-1.700;2023-07-31T12:23:33;22.00;66.70
46926;DHT22;32667;48.248;-1.700;2023-07-31T12:26:10;22.00;66.50
46926;DHT22;32667;48.248;-1.700;2023-07-31T12:28:43;22.10;66.50
46926;DHT22;32667;48.248;-1.700;2023-07-31T12:33:42;22.10;66.60
46926;DHT22;32667;48.248;-1.700;2023-07-31T12:36:21;22.00;66.70
46926;DHT22;32667;48.248;-1.700;2023-07-31T12:38:47;22.00;66.90
46926;DHT22;32667;48.248;-1.700;2023-07-31T12:41:15;21.90;66.90
46926;DHT22;32667;48.248;-1.700;2023-07-31T12:43:47;21.90;67.00
46926;DHT22;32667;48.248;-1.700;2023-07-31T12:46:15;21.90;67.00
46926;DHT22;32667;48.248;-1.700;2023-07-31T12:48:42;22.00;67.00
46926;DHT22;32667;48.248;-1.700;2023-07-31T12:51:08;21.90;66.90
46926;DHT22;32667;48.248;-1.700;2023-07-31T12:53:36;22.00;67.00
46926;DHT22;32667;48.248;-1.700;2023-07-31T12:56:04;21.90;67.00
46926;DHT22;32667;48.248;-1.700;2023-07-31T12:58:30;22.00;67.00
46926;DHT22;32667;48.248;-1.700;2023-07-31T13:01:00;22.00;67.00
46926;DHT22;32667;48.248;-1.700;2023-07-31T13:03:27;22.00;67.00
46926;DHT22;32667;48.248;-1.700;2023-07-31T13:05:54;22.00;67.00
46926;DHT22;32667;48.248;-1.700;2023-07-31T13:08:20;21.90;67.00
46926;DHT22;32667;48.248;-1.700;2023-07-31T13:10:48;21.90;67.10
46926;DHT22;32667;48.248;-1.700;2023-07-31T13:13:14;21.80;67.20
46926;DHT22;32667;48.248;-1.700;2023-07-31T13:15:41;21.80;67.40
46926;DHT22;32667;48.248;-1.700;2023-07-31T13:18:07;21.70;67.50
46926;DHT22;32667;48.248;-1.700;2023-07-31T13:20:35;21.60;67.60
46926;DHT22;32667;48.248;-1.700;2023-07-31T13:23:08;21.60;67.60
46926;DHT22;32667;48.248;-1.700;2023-07-31T13:25:34;21.60;67.70
46926;DHT22;32667;48.248;-1.700;2023-07-31T13:28:00;21.50;67.70
46926;DHT22;32667;48.248;-1.700;2023-07-31T13:30:26;21.50;67.80
46926;DHT22;32667;48.248;-1.700;2023-07-31T13:32:52;21.50;67.80
46926;DHT22;32667;48.248;-1.700;2023-07-31T13:35:21;21.50;67.90
46926;DHT22;32667;48.248;-1.700;2023-07-31T13:37:48;21.40;67.80
46926;DHT22;32667;48.248;-1.700;2023-07-31T13:40:16;21.40;67.90
46926;DHT22;32667;48.248;-1.700;2023-07-31T13:42:42;21.40;67.90
46926;DHT22;32667;48.248;-1.700;2023-07-31T13:45:12;21.40;68.00
46926;DHT22;32667;48.248;-1.700;2023-07-31T13:47:38;21.30;68.10
46926;DHT22;32667;48.248;-1.700;2023-07-31T13:50:04;21.30;68.10
46926;DHT22;32667;48.248;-1.700;2023-07-31T13:52:30;21.20;68.20
46926;DHT22;32667;48.248;-1.700;2023-07-31T13:55:03;21.10;68.30
46926;DHT22;32667;48.248;-1.700;2023-07-31T13:57:28;21.10;68.40
46926;DHT22;32667;48.248;-1.700;2023-07-31T13:59:54;21.10;68.40
46926;DHT22;32667;48.248;-1.700;2023-07-31T14:02:22;21.00;68.40
46926;DHT22;32667;48.248;-1.700;2023-07-31T14:04:50;20.90;68.50
46926;DHT22;32667;48.248;-1.700;2023-07-31T14:07:16;20.90;68.60
46926;DHT22;32667;48.248;-1.700;2023-07-31T14:09:43;20.90;68.60
46926;DHT22;32667;48.248;-1.700;2023-07-31T14:12:14;20.90;68.50
46926;DHT22;32667;48.248;-1.700;2023-07-31T14:14:40;20.90;68.40
46926;DHT22;32667;48.248;-1.700;2023-07-31T14:17:06;20.90;68.50
46926;DHT22;32667;48.248;-1.700;2023-07-31T14:19:31;20.90;68.60
46926;DHT22;32667;48.248;-1.700;2023-07-31T14:21:58;20.90;68.50
46926;DHT22;32667;48.248;-1.700;2023-07-31T14:24:24;20.80;68.50
46926;DHT22;32667;48.248;-1.700;2023-07-31T14:26:50;20.80;68.60
46926;DHT22;32667;48.248;-1.700;2023-07-31T14:29:16;20.70;68.60
46926;DHT22;32667;48.248;-1.700;2023-07-31T14:31:41;20.70;68.60
46926;DHT22;32667;48.248;-1.700;2023-07-31T14:34:07;20.70;68.70
46926;DHT22;32667;48.248;-1.700;2023-07-31T14:36:33;20.70;68.80
46926;DHT22;32667;48.248;-1.700;2023-07-31T14:39:01;20.60;68.70
46926;DHT22;32667;48.248;-1.700;2023-07-31T14:41:26;20.60;68.80
46926;DHT22;32667;48.248;-1.700;2023-07-31T14:43:52;20.60;68.70
46926;DHT22;32667;48.248;-1.700;2023-07-31T14:46:20;20.70;68.80
46926;DHT22;32667;48.248;-1.700;2023-07-31T14:48:48;20.70;68.70
46926;DHT22;32667;48.248;-1.700;2023-07-31T14:51:16;20.70;68.70
46926;DHT22;32667;48.248;-1.700;2023-07-31T14:53:45;20.70;68.60
46926;DHT22;32667;48.248;-1.700;2023-07-31T14:56:12;20.70;68.60
46926;DHT22;32667;48.248;-1.700;2023-07-31T14:58:38;20.70;68.60
46926;DHT22;32667;48.248;-1.700;2023-07-31T15:01:04;20.60;68.60
46926;DHT22;32667;48.248;-1.700;2023-07-31T15:03:32;20.60;68.70
46926;DHT22;32667;48.248;-1.700;2023-07-31T15:05:58;20.70;68.80
46926;DHT22;32667;48.248;-1.700;2023-07-31T15:08:23;20.60;68.70
46926;DHT22;32667;48.248;-1.700;2023-07-31T15:10:49;20.70;68.70
46926;DHT22;32667;48.248;-1.700;2023-07-31T15:13:37;20.70;68.70
46926;DHT22;32667;48.248;-1.700;2023-07-31T15:16:05;20.70;68.70
46926;DHT22;32667;48.248;-1.700;2023-07-31T15:18:31;20.70;68.60
46926;DHT22;32667;48.248;-1.700;2023-07-31T15:20:57;20.70;68.60
46926;DHT22;32667;48.248;-1.700;2023-07-31T15:23:25;20.70;68.60
46926;DHT22;32667;48.248;-1.700;2023-07-31T15:25:51;20.70;68.60
46926;DHT22;32667;48.248;-1.700;2023-07-31T15:28:19;20.70;68.60
46926;DHT22;32667;48.248;-1.700;2023-07-31T15:30:48;20.60;68.60
46926;DHT22;32667;48.248;-1.700;2023-07-31T15:33:17;20.70;68.70
46926;DHT22;32667;48.248;-1.700;2023-07-31T15:35:43;20.60;68.70
46926;DHT22;32667;48.248;-1.700;2023-07-31T15:38:09;20.60;68.70